createdAt,value
2023-04-12T00:00:48.472Z,1.60
2023-04-12T00:02:12.649Z,1.50
2023-04-12T00:03:36.567Z,1.13
2023-04-12T00:05:02.995Z,1.73
2023-04-12T00:06:32.422Z,1.60
2023-04-12T00:07:58.227Z,1.67
2023-04-12T00:09:20.721Z,1.23
2023-04-12T00:10:44.208Z,1.70
2023-04-12T00:12:07.393Z,1.65
2023-04-12T00:13:31.621Z,1.80
2023-04-12T00:14:54.006Z,2.00
2023-04-12T00:16:17.804Z,1.70
2023-04-12T00:17:41.569Z,1.63
2023-04-12T00:19:04.284Z,1.90
2023-04-12T00:20:27.822Z,1.92
2023-04-12T00:21:50.261Z,1.55
2023-04-12T00:23:15.384Z,2.00
2023-04-12T00:24:39.614Z,1.40
2023-04-12T00:26:03.282Z,1.42
2023-04-12T00:27:26.698Z,1.95
2023-04-12T00:28:49.130Z,1.40
2023-04-12T00:30:13.241Z,1.40
2023-04-12T00:31:36.763Z,1.65
2023-04-12T00:33:00.515Z,1.75
2023-04-12T00:34:23.208Z,1.67
2023-04-12T00:35:46.749Z,1.50
2023-04-12T00:37:09.180Z,2.03
2023-04-12T00:38:33.951Z,1.85
2023-04-12T00:39:58.077Z,1.63
2023-04-12T00:41:21.567Z,1.25
2023-04-12T00:42:44.001Z,2.17
2023-04-12T00:44:08.809Z,1.63
2023-04-12T00:45:32.114Z,1.92
2023-04-12T00:46:55.598Z,2.75
2023-04-12T00:48:19.242Z,1.80
2023-04-12T00:49:42.733Z,2.30
2023-04-12T00:51:07.209Z,1.85
2023-04-12T00:52:34.153Z,1.65
2023-04-12T00:53:59.188Z,1.50
2023-04-12T00:55:22.736Z,1.58
2023-04-12T00:56:46.187Z,1.60
2023-04-12T00:58:09.659Z,1.70
2023-04-12T00:59:33.083Z,2.05
2023-04-12T01:00:57.267Z,1.67
2023-04-12T01:02:21.034Z,1.80
2023-04-12T01:03:43.754Z,1.65
2023-04-12T01:05:08.121Z,1.48
2023-04-12T01:06:41.917Z,2.10
2023-04-12T01:08:10.716Z,1.95
2023-04-12T01:09:42.405Z,1.60
2023-04-12T01:11:09.905Z,1.50
2023-04-12T01:12:42.061Z,1.38
2023-04-12T01:14:08.636Z,2.20
2023-04-12T01:15:34.095Z,1.92
2023-04-12T01:17:00.550Z,1.55
2023-04-12T01:18:26.170Z,2.10
2023-04-12T01:19:59.068Z,1.70
2023-04-12T01:21:28.021Z,1.40
2023-04-12T01:23:08.931Z,1.30
2023-04-12T01:24:44.778Z,1.55
2023-04-12T01:26:24.294Z,1.80
2023-04-12T01:27:51.695Z,1.92
2023-04-12T01:29:16.028Z,2.03
2023-04-12T01:30:40.411Z,1.98
2023-04-12T01:32:05.302Z,1.73
2023-04-12T01:33:31.449Z,2.30
2023-04-12T01:34:56.167Z,1.73
2023-04-12T01:36:20.676Z,1.73
2023-04-12T01:37:44.598Z,1.75
2023-04-12T01:39:08.484Z,1.90
2023-04-12T01:40:33.229Z,1.65
2023-04-12T01:41:57.140Z,1.70
2023-04-12T01:43:20.972Z,1.48
2023-04-12T01:44:44.349Z,2.25
2023-04-12T01:46:08.153Z,2.10
2023-04-12T01:47:31.177Z,2.53
2023-04-12T01:48:58.228Z,2.38
2023-04-12T01:50:24.768Z,2.20
2023-04-12T01:51:52.528Z,2.13
2023-04-12T01:53:20.220Z,1.95
2023-04-12T01:54:45.402Z,1.98
2023-04-12T01:56:11.236Z,2.10
2023-04-12T01:57:35.255Z,2.13
2023-04-12T01:59:00.236Z,2.08
2023-04-12T02:00:24.739Z,2.17
2023-04-12T02:01:48.406Z,2.38
2023-04-12T02:03:12.683Z,2.50
2023-04-12T02:04:36.231Z,2.13
2023-04-12T02:06:00.050Z,2.40
2023-04-12T02:07:24.289Z,2.55
2023-04-12T02:08:48.120Z,2.50
2023-04-12T02:10:14.351Z,2.05
2023-04-12T02:11:37.770Z,2.17
2023-04-12T02:13:00.703Z,2.28
2023-04-12T02:14:27.001Z,2.15
2023-04-12T02:15:49.665Z,2.53
2023-04-12T02:17:13.256Z,2.17
2023-04-12T02:18:35.918Z,2.03
2023-04-12T02:19:59.327Z,2.13
2023-04-12T02:21:22.043Z,2.35
2023-04-12T02:22:45.660Z,2.35
2023-04-12T02:24:09.191Z,2.03
2023-04-12T02:25:33.322Z,1.65
2023-04-12T02:26:56.716Z,2.10
2023-04-12T02:28:19.171Z,2.30
2023-04-12T02:29:43.920Z,2.13
2023-04-12T02:31:07.399Z,2.05
2023-04-12T02:32:30.903Z,2.00
2023-04-12T02:33:53.406Z,1.90
2023-04-12T02:35:18.571Z,2.45
2023-04-12T02:36:42.043Z,2.17
2023-04-12T02:38:07.909Z,2.22
2023-04-12T02:39:32.164Z,2.38
2023-04-12T02:40:55.961Z,2.45
2023-04-12T02:42:18.411Z,1.83
2023-04-12T02:43:41.805Z,2.05
2023-04-12T02:45:07.934Z,2.38
2023-04-12T02:46:31.546Z,2.28
2023-04-12T02:47:54.232Z,2.38
2023-04-12T02:49:17.680Z,1.85
2023-04-12T02:50:42.374Z,2.45
2023-04-12T02:52:06.012Z,1.88
2023-04-12T02:53:29.421Z,1.75
2023-04-12T02:54:52.419Z,1.92
2023-04-12T02:56:21.403Z,2.22
2023-04-12T02:57:45.665Z,2.33
2023-04-12T02:59:09.090Z,2.35
2023-04-12T03:00:33.961Z,2.17
2023-04-12T03:01:59.504Z,2.28
2023-04-12T03:03:23.359Z,1.95
2023-04-12T03:04:47.131Z,2.50
2023-04-12T03:06:10.822Z,2.45
2023-04-12T03:07:34.283Z,2.58
2023-04-12T03:08:58.364Z,2.10
2023-04-12T03:10:20.923Z,1.92
2023-04-12T03:11:44.325Z,2.53
2023-04-12T03:13:07.717Z,2.15
2023-04-12T03:14:31.084Z,2.33
2023-04-12T03:16:00.683Z,2.20
2023-04-12T03:17:23.747Z,2.47
2023-04-12T03:18:47.277Z,2.03
2023-04-12T03:20:10.608Z,2.08
2023-04-12T03:21:34.174Z,2.20
2023-04-12T03:22:56.658Z,2.25
2023-04-12T03:24:20.112Z,2.30
2023-04-12T03:25:42.584Z,2.17
2023-04-12T03:27:08.195Z,2.33
2023-04-12T03:28:30.685Z,2.03
2023-04-12T03:29:54.111Z,2.40
2023-04-12T03:31:23.165Z,2.42
2023-04-12T03:32:45.940Z,2.47
2023-04-12T03:34:09.435Z,2.53
2023-04-12T03:35:32.860Z,2.00
2023-04-12T03:36:56.602Z,2.55
2023-04-12T03:38:19.218Z,2.30
2023-04-12T03:39:44.814Z,2.20
2023-04-12T03:41:07.599Z,2.13
2023-04-12T03:42:33.440Z,2.30
2023-04-12T03:43:56.863Z,2.25
2023-04-12T03:45:20.504Z,2.28
2023-04-12T03:46:45.629Z,2.25
2023-04-12T03:48:11.008Z,2.25
2023-04-12T03:49:34.450Z,2.30
2023-04-12T03:50:59.672Z,2.47
2023-04-12T03:52:24.030Z,2.30
2023-04-12T03:53:46.626Z,2.72
2023-04-12T03:55:12.010Z,2.30
2023-04-12T03:56:34.458Z,2.13
2023-04-12T03:57:58.720Z,2.13
2023-04-12T03:59:21.323Z,2.00
2023-04-12T04:00:44.732Z,2.30
2023-04-12T04:02:09.620Z,2.45
2023-04-12T04:03:37.408Z,2.45
2023-04-12T04:05:02.442Z,2.42
2023-04-12T04:06:25.645Z,2.70
2023-04-12T04:07:49.147Z,2.42
2023-04-12T04:09:11.619Z,2.53
2023-04-12T04:10:35.206Z,2.17
2023-04-12T04:11:58.650Z,1.92
2023-04-12T04:13:21.151Z,2.67
2023-04-12T04:14:44.715Z,3.22
2023-04-12T04:16:10.155Z,3.10
2023-04-12T04:17:34.946Z,2.65
2023-04-12T04:18:58.350Z,2.75
2023-04-12T04:20:20.873Z,2.67
2023-04-12T04:21:45.113Z,2.75
2023-04-12T04:23:10.125Z,2.85
2023-04-12T04:24:34.250Z,2.85
2023-04-12T04:25:57.462Z,2.92
2023-04-12T04:27:22.165Z,2.08
2023-04-12T04:28:46.274Z,2.53
2023-04-12T04:30:10.420Z,2.78
2023-04-12T04:31:36.460Z,2.33
2023-04-12T04:33:01.272Z,3.00
2023-04-12T04:34:25.408Z,2.88
2023-04-12T04:35:48.925Z,2.50
2023-04-12T04:37:12.449Z,2.20
2023-04-12T04:38:35.983Z,2.55
2023-04-12T04:39:59.411Z,2.90
2023-04-12T04:41:22.802Z,2.67
2023-04-12T04:42:46.462Z,2.33
2023-04-12T04:44:09.516Z,2.42
2023-04-12T04:45:33.580Z,2.65
2023-04-12T04:46:56.668Z,2.70
2023-04-12T04:48:21.553Z,2.63
2023-04-12T04:49:45.604Z,2.53
2023-04-12T04:51:09.166Z,2.45
2023-04-12T04:52:32.546Z,2.10
2023-04-12T04:53:57.335Z,2.60
2023-04-12T04:55:21.502Z,2.20
2023-04-12T04:56:44.932Z,2.60
2023-04-12T04:58:08.311Z,1.88
2023-04-12T04:59:31.182Z,2.10
2023-04-12T05:00:57.460Z,2.15
2023-04-12T05:02:21.403Z,2.10
2023-04-12T05:03:46.578Z,2.20
2023-04-12T05:05:12.533Z,2.30
2023-04-12T05:06:35.997Z,2.25
2023-04-12T05:07:59.465Z,3.20
2023-04-12T05:09:22.907Z,1.85
2023-04-12T05:10:48.785Z,2.08
2023-04-12T05:12:12.162Z,1.85
2023-04-12T05:13:34.615Z,1.65
2023-04-12T05:15:10.554Z,2.30
2023-04-12T05:16:35.506Z,2.35
2023-04-12T05:17:59.040Z,2.30
2023-04-12T05:19:23.851Z,2.38
2023-04-12T05:20:48.346Z,2.42
2023-04-12T05:22:13.912Z,2.30
2023-04-12T05:23:38.341Z,2.58
2023-04-12T05:25:03.008Z,2.10
2023-04-12T05:26:25.918Z,2.30
2023-04-12T05:27:51.355Z,2.35
2023-04-12T05:29:15.493Z,2.35
2023-04-12T05:30:41.698Z,2.53
2023-04-12T05:32:05.197Z,2.28
2023-04-12T05:33:28.678Z,2.10
2023-04-12T05:34:52.561Z,2.60
2023-04-12T05:36:17.551Z,2.92
2023-04-12T05:37:40.956Z,2.10
2023-04-12T05:39:04.385Z,2.25
2023-04-12T05:40:27.970Z,2.10
2023-04-12T05:41:51.499Z,1.92
2023-04-12T05:43:15.377Z,2.45
2023-04-12T05:44:41.677Z,2.17
2023-04-12T05:46:05.592Z,2.30
2023-04-12T05:47:29.023Z,2.05
2023-04-12T05:48:52.492Z,2.35
2023-04-12T05:50:16.428Z,2.05
2023-04-12T05:51:41.485Z,2.40
2023-04-12T05:53:05.347Z,2.00
2023-04-12T05:54:28.785Z,2.10
2023-04-12T05:55:57.520Z,2.13
2023-04-12T05:57:21.047Z,2.53
2023-04-12T05:58:47.171Z,2.40
2023-04-12T06:00:14.255Z,2.80
2023-04-12T06:01:39.792Z,1.88
2023-04-12T06:03:03.814Z,2.13
2023-04-12T06:04:41.946Z,2.22
2023-04-12T06:06:11.950Z,2.10
2023-04-12T06:07:35.399Z,2.63
2023-04-12T06:09:00.565Z,2.95
2023-04-12T06:10:24.110Z,2.50
2023-04-12T06:11:47.499Z,2.63
2023-04-12T06:13:11.024Z,2.67
2023-04-12T06:14:34.391Z,2.50
2023-04-12T06:15:57.863Z,2.47
2023-04-12T06:17:20.476Z,2.70
2023-04-12T06:18:44.275Z,2.63
2023-04-12T06:20:09.706Z,2.65
2023-04-12T06:21:34.592Z,2.00
2023-04-12T06:22:57.006Z,2.53
2023-04-12T06:24:20.686Z,2.28
2023-04-12T06:25:44.164Z,2.50
2023-04-12T06:27:07.577Z,2.35
2023-04-12T06:28:30.970Z,2.15
2023-04-12T06:29:54.499Z,2.30
2023-04-12T06:31:17.942Z,2.05
2023-04-12T06:32:41.440Z,2.08
2023-04-12T06:34:04.970Z,2.60
2023-04-12T06:35:28.428Z,2.53
2023-04-12T06:36:53.213Z,2.65
2023-04-12T06:38:16.664Z,2.13
2023-04-12T06:39:40.201Z,2.00
2023-04-12T06:41:03.759Z,2.15
2023-04-12T06:42:27.406Z,2.13
2023-04-12T06:43:50.830Z,1.73
2023-04-12T06:45:15.985Z,1.95
2023-04-12T06:46:38.480Z,2.20
2023-04-12T06:48:02.013Z,2.47
2023-04-12T06:49:25.476Z,1.92
2023-04-12T06:50:48.962Z,2.08
2023-04-12T06:52:14.080Z,1.80
2023-04-12T06:53:39.138Z,1.83
2023-04-12T06:55:02.677Z,1.67
2023-04-12T06:56:26.217Z,1.77
2023-04-12T06:57:53.046Z,1.65
2023-04-12T06:59:16.466Z,2.25
2023-04-12T07:00:39.968Z,2.03
2023-04-12T07:02:03.486Z,1.48
2023-04-12T07:03:30.800Z,1.60
2023-04-12T07:04:54.720Z,1.45
2023-04-12T07:06:25.217Z,1.52
2023-04-12T07:07:51.115Z,1.50
2023-04-12T07:09:15.462Z,1.60
2023-04-12T07:10:38.921Z,1.95
2023-04-12T07:12:02.336Z,1.55
2023-04-12T07:13:25.933Z,1.67
2023-04-12T07:14:49.397Z,1.27
2023-04-12T07:16:12.970Z,1.52
2023-04-12T07:17:36.614Z,1.60
2023-04-12T07:19:00.967Z,1.80
2023-04-12T07:20:24.701Z,1.67
2023-04-12T07:21:48.163Z,1.80
2023-04-12T07:23:13.043Z,1.77
2023-04-12T07:24:36.424Z,2.00
2023-04-12T07:26:01.747Z,1.55
2023-04-12T07:27:25.302Z,2.00
2023-04-12T07:28:48.720Z,1.85
2023-04-12T07:30:13.223Z,1.83
2023-04-12T07:31:38.119Z,2.10
2023-04-12T07:33:18.479Z,1.98
2023-04-12T07:34:43.551Z,1.55
2023-04-12T07:36:07.788Z,1.95
2023-04-12T07:37:31.312Z,1.55
2023-04-12T07:38:56.570Z,1.58
2023-04-12T07:40:20.504Z,2.00
2023-04-12T07:41:46.418Z,1.98
2023-04-12T07:43:09.863Z,1.50
2023-04-12T07:44:35.594Z,1.52
2023-04-12T07:46:04.489Z,1.70
2023-04-12T07:47:28.193Z,1.88
2023-04-12T07:48:52.317Z,2.00
2023-04-12T07:50:15.968Z,1.83
2023-04-12T07:51:39.494Z,1.30
2023-04-12T07:53:20.967Z,1.48
2023-04-12T07:54:46.802Z,1.77
2023-04-12T07:56:10.462Z,1.30
2023-04-12T07:57:34.280Z,1.70
2023-04-12T07:58:56.874Z,1.50
2023-04-12T08:00:22.523Z,1.10
2023-04-12T08:01:46.085Z,1.35
2023-04-12T08:03:09.641Z,1.25
2023-04-12T08:04:33.180Z,1.45
2023-04-12T08:05:56.912Z,1.40
2023-04-12T08:07:20.491Z,1.38
2023-04-12T08:08:46.070Z,1.35
2023-04-12T08:10:11.391Z,1.17
2023-04-12T08:11:37.799Z,0.90
2023-04-12T08:13:05.421Z,1.10
2023-04-12T08:14:28.821Z,1.17
2023-04-12T08:15:52.438Z,1.10
2023-04-12T08:17:16.632Z,1.08
2023-04-12T08:18:40.118Z,1.50
2023-04-12T08:20:04.568Z,0.82
2023-04-12T08:21:30.146Z,1.33
2023-04-12T08:22:54.572Z,1.20
2023-04-12T08:24:18.038Z,1.00
2023-04-12T08:25:43.006Z,1.30
2023-04-12T08:27:06.417Z,1.08
2023-04-12T08:28:29.904Z,1.20
2023-04-12T08:29:53.450Z,1.20
2023-04-12T08:31:17.791Z,1.63
2023-04-12T08:32:41.704Z,1.25
2023-04-12T08:34:06.825Z,1.20
2023-04-12T08:35:30.378Z,0.93
2023-04-12T08:36:54.204Z,0.82
2023-04-12T08:38:37.233Z,1.23
2023-04-12T08:40:09.301Z,1.02
2023-04-12T08:41:37.033Z,1.00
2023-04-12T08:43:04.025Z,1.27
2023-04-12T08:44:36.970Z,1.05
2023-04-12T08:46:00.971Z,1.13
2023-04-12T08:47:24.546Z,1.33
2023-04-12T08:48:49.295Z,1.48
2023-04-12T08:50:14.329Z,0.95
2023-04-12T08:51:40.907Z,1.10
2023-04-12T08:53:04.746Z,1.20
2023-04-12T08:54:28.970Z,0.95
2023-04-12T08:55:52.583Z,1.13
2023-04-12T08:57:17.378Z,1.35
2023-04-12T08:58:41.738Z,0.80
2023-04-12T09:00:07.254Z,1.30
2023-04-12T09:01:30.926Z,1.25
2023-04-12T09:02:55.349Z,0.93
2023-04-12T09:04:17.940Z,1.13
2023-04-12T09:05:41.676Z,1.30
2023-04-12T09:07:05.611Z,1.17
2023-04-12T09:08:29.139Z,1.00
2023-04-12T09:09:52.710Z,1.00
2023-04-12T09:11:24.439Z,1.52
2023-04-12T09:12:52.358Z,1.40
2023-04-12T09:14:23.263Z,1.25
2023-04-12T09:15:51.181Z,1.30
2023-04-12T09:17:26.017Z,1.20
2023-04-12T09:18:51.172Z,1.02
2023-04-12T09:20:28.278Z,1.10
2023-04-12T09:21:55.624Z,1.63
2023-04-12T09:23:20.606Z,1.27
2023-04-12T09:24:48.589Z,1.17
2023-04-12T09:26:30.558Z,0.93
2023-04-12T09:27:57.138Z,1.02
2023-04-12T09:29:26.039Z,1.40
2023-04-12T09:30:51.719Z,1.20
2023-04-12T09:32:15.743Z,1.25
2023-04-12T09:33:40.498Z,1.10
2023-04-12T09:35:05.608Z,1.30
2023-04-12T09:36:39.620Z,1.40
2023-04-12T09:38:09.077Z,1.08
2023-04-12T09:39:33.531Z,1.52
2023-04-12T09:40:56.986Z,1.42
2023-04-12T09:43:50.307Z,1.30
2023-04-12T09:45:22.052Z,1.30
2023-04-12T09:46:53.003Z,1.08
2023-04-12T09:48:22.033Z,1.60
2023-04-12T09:49:46.049Z,0.85
2023-04-12T09:51:10.065Z,1.40
2023-04-12T09:52:38.119Z,1.30
2023-04-12T09:54:03.948Z,1.25
2023-04-12T09:55:27.828Z,1.00
2023-04-12T09:56:51.686Z,1.25
2023-04-12T09:58:15.533Z,1.10
2023-04-12T09:59:41.731Z,1.10
2023-04-12T10:01:15.895Z,1.40
2023-04-12T10:02:45.087Z,1.70
2023-04-12T10:04:11.305Z,1.30
2023-04-12T10:05:35.639Z,1.38
2023-04-12T10:07:03.147Z,1.02
2023-04-12T10:08:26.925Z,1.50
2023-04-12T10:09:50.442Z,1.40
2023-04-12T10:11:14.383Z,1.20
2023-04-12T10:12:38.196Z,1.30
2023-04-12T10:14:03.114Z,1.20
2023-04-12T10:15:30.139Z,1.30
2023-04-12T10:16:56.151Z,0.85
2023-04-12T10:18:20.466Z,1.33
2023-04-12T10:19:44.201Z,1.10
2023-04-12T10:21:08.779Z,1.10
2023-04-12T10:22:32.206Z,1.20
2023-04-12T10:23:56.990Z,1.20
2023-04-12T10:25:21.602Z,1.00
2023-04-12T10:26:45.629Z,1.17
2023-04-12T10:28:16.458Z,1.08
2023-04-12T10:29:44.273Z,1.05
2023-04-12T10:31:30.526Z,1.65
2023-04-12T10:33:18.091Z,0.98
2023-04-12T10:34:44.209Z,1.10
2023-04-12T10:36:13.043Z,1.40
2023-04-12T10:38:01.077Z,1.23
2023-04-12T10:39:39.088Z,0.98
2023-04-12T10:41:11.647Z,1.08
2023-04-12T10:42:35.127Z,1.30
2023-04-12T10:44:25.749Z,1.02
2023-04-12T10:45:49.553Z,1.33
2023-04-12T10:47:14.804Z,1.08
2023-04-12T10:48:39.436Z,1.40
2023-04-12T10:50:24.577Z,1.40
2023-04-12T10:52:14.353Z,1.20
2023-04-12T10:53:37.735Z,0.73
2023-04-12T10:55:32.770Z,1.00
2023-04-12T10:56:57.384Z,0.80
2023-04-12T10:58:57.656Z,0.70
2023-04-12T11:00:21.799Z,1.20
2023-04-12T11:02:13.652Z,1.52
2023-04-12T11:03:38.830Z,1.13
2023-04-12T11:05:10.208Z,1.55
2023-04-12T11:06:49.024Z,0.75
2023-04-12T11:08:13.944Z,0.80
2023-04-12T11:09:40.993Z,1.35
2023-04-12T11:11:05.390Z,0.98
2023-04-12T11:12:29.954Z,0.98
2023-04-12T11:13:57.139Z,0.90
2023-04-12T11:15:20.707Z,1.20
2023-04-12T11:17:21.804Z,1.58
2023-04-12T11:18:49.275Z,1.30
2023-04-12T11:20:13.957Z,1.52
2023-04-12T11:21:37.880Z,0.98
2023-04-12T11:23:01.436Z,0.90
2023-04-12T11:24:24.624Z,1.00
2023-04-12T11:25:53.015Z,0.95
2023-04-12T11:27:17.193Z,1.08
2023-04-12T11:28:40.764Z,1.20
2023-04-12T11:30:04.482Z,1.20
2023-04-12T11:31:29.550Z,1.20
2023-04-12T11:32:53.080Z,1.23
2023-04-12T11:34:19.101Z,1.40
2023-04-12T11:35:45.334Z,1.13
2023-04-12T11:37:08.657Z,1.15
2023-04-12T11:38:32.159Z,0.70
2023-04-12T11:39:58.214Z,1.02
2023-04-12T11:41:21.667Z,0.73
2023-04-12T11:42:45.100Z,1.13
2023-04-12T11:44:09.310Z,1.10
2023-04-12T11:45:32.696Z,1.38
2023-04-12T11:46:56.215Z,1.10
2023-04-12T11:48:19.688Z,1.10
2023-04-12T11:49:48.793Z,1.45
2023-04-12T11:51:24.451Z,1.23
2023-04-12T11:52:47.810Z,1.02
2023-04-12T11:54:12.427Z,1.10
2023-04-12T11:55:35.777Z,1.08
2023-04-12T11:56:59.430Z,1.00
2023-04-12T11:58:24.881Z,1.08
2023-04-12T11:59:49.293Z,1.10
2023-04-12T12:01:13.006Z,1.30
2023-04-12T12:02:43.748Z,0.90
2023-04-12T12:04:10.077Z,1.15
2023-04-12T12:05:38.477Z,0.82
2023-04-12T12:07:02.631Z,1.15
2023-04-12T12:08:27.144Z,1.17
2023-04-12T12:09:51.164Z,0.77
2023-04-12T12:11:15.426Z,0.77
2023-04-12T12:12:38.859Z,1.23
2023-04-12T12:14:02.286Z,1.08
2023-04-12T12:15:25.717Z,1.70
2023-04-12T12:16:55.842Z,1.10
2023-04-12T12:18:19.337Z,0.82
2023-04-12T12:19:44.115Z,1.02
2023-04-12T12:21:10.810Z,0.77
2023-04-12T12:22:35.189Z,1.25
2023-04-12T12:23:59.090Z,0.90
2023-04-12T12:25:22.564Z,1.17
2023-04-12T12:26:46.157Z,1.10
2023-04-12T12:28:14.448Z,0.88
2023-04-12T12:29:38.494Z,1.20
2023-04-12T12:31:01.984Z,0.88
2023-04-12T12:32:25.749Z,0.95
2023-04-12T12:33:49.680Z,0.82
2023-04-12T12:35:14.247Z,1.10
2023-04-12T12:36:39.326Z,1.35
2023-04-12T12:38:03.142Z,1.25
2023-04-12T12:39:29.165Z,1.10
2023-04-12T12:40:52.758Z,1.05
2023-04-12T12:42:16.852Z,1.30
2023-04-12T12:43:40.412Z,1.05
2023-04-12T12:45:05.292Z,0.65
2023-04-12T12:46:40.673Z,0.70
2023-04-12T12:48:13.237Z,1.13
2023-04-12T12:49:36.889Z,0.88
2023-04-12T12:51:00.763Z,1.25
2023-04-12T12:52:25.654Z,1.17
2023-04-12T12:53:49.183Z,0.80
2023-04-12T12:55:12.732Z,0.77
2023-04-12T12:56:36.628Z,1.20
2023-04-12T12:59:27.322Z,0.90
2023-04-12T13:00:51.002Z,1.17
2023-04-12T13:02:15.746Z,1.02
2023-04-12T13:03:39.421Z,1.10
2023-04-12T13:05:03.218Z,1.70
2023-04-12T13:06:27.088Z,1.10
2023-04-12T13:07:53.154Z,0.88
2023-04-12T13:09:16.906Z,1.10
2023-04-12T13:10:40.409Z,1.08
2023-04-12T13:12:04.212Z,0.82
2023-04-12T13:13:28.463Z,0.82
2023-04-12T13:14:54.425Z,0.98
2023-04-12T13:16:22.888Z,1.10
2023-04-12T13:17:47.561Z,1.08
2023-04-12T13:19:11.063Z,0.35
2023-04-12T13:20:34.548Z,0.80
2023-04-12T13:21:57.991Z,1.10
2023-04-12T13:23:22.788Z,1.00
2023-04-12T13:24:46.253Z,1.00
2023-04-12T13:26:09.673Z,0.73
2023-04-12T13:27:33.168Z,1.13
2023-04-12T13:28:56.841Z,1.00
2023-04-12T13:30:20.994Z,1.02
2023-04-12T13:31:44.433Z,1.00
2023-04-12T13:33:08.877Z,1.02
2023-04-12T13:34:32.693Z,0.52
2023-04-12T13:35:56.321Z,0.70
2023-04-12T13:37:19.743Z,0.90
2023-04-12T13:38:44.596Z,1.33
2023-04-12T13:40:08.913Z,1.58
2023-04-12T13:41:33.781Z,0.70
2023-04-12T13:42:57.187Z,0.70
2023-04-12T13:44:20.637Z,1.10
2023-04-12T13:45:44.858Z,1.00
2023-04-12T13:47:10.797Z,0.93
2023-04-12T13:48:34.227Z,0.98
2023-04-12T13:49:57.662Z,1.10
2023-04-12T13:51:21.118Z,1.00
2023-04-12T13:52:45.326Z,1.02
2023-04-12T13:54:10.087Z,0.93
2023-04-12T13:55:33.543Z,0.80
2023-04-12T13:56:57.635Z,0.95
2023-04-12T13:58:21.143Z,0.88
2023-04-12T13:59:44.570Z,1.13
2023-04-12T14:01:08.692Z,1.00
2023-04-12T14:02:32.415Z,0.63
2023-04-12T14:03:56.994Z,1.40
2023-04-12T14:05:20.570Z,0.77
2023-04-12T14:06:45.624Z,1.42
2023-04-12T14:08:09.120Z,0.88
2023-04-12T14:09:34.515Z,1.05
2023-04-12T14:10:57.911Z,1.00
2023-04-12T14:12:21.413Z,1.55
2023-04-12T14:13:44.822Z,1.05
2023-04-12T14:15:10.206Z,0.98
2023-04-12T14:16:33.871Z,0.85
2023-04-12T14:17:57.509Z,1.00
2023-04-12T14:19:22.090Z,1.20
2023-04-12T14:20:49.475Z,1.13
2023-04-12T14:22:12.962Z,0.70
2023-04-12T14:23:36.348Z,1.02
2023-04-12T14:25:01.492Z,1.13
2023-04-12T14:26:23.992Z,0.85
2023-04-12T14:27:47.481Z,1.55
2023-04-12T14:29:11.016Z,0.88
2023-04-12T14:30:34.522Z,1.10
2023-04-12T14:31:57.974Z,1.13
2023-04-12T14:33:21.383Z,1.83
2023-04-12T14:34:44.942Z,1.63
2023-04-12T14:36:08.824Z,1.33
2023-04-12T14:37:33.593Z,1.25
2023-04-12T14:38:57.457Z,1.30
2023-04-12T14:40:22.536Z,1.00
2023-04-12T14:41:46.042Z,0.95
2023-04-12T14:43:08.597Z,1.02
2023-04-12T14:44:32.649Z,1.10
2023-04-12T14:45:56.120Z,1.00
2023-04-12T14:47:19.677Z,0.90
2023-04-12T14:48:43.128Z,1.00
2023-04-12T14:50:10.117Z,1.45
2023-04-12T14:51:33.979Z,1.05
2023-04-12T14:52:57.427Z,1.25
2023-04-12T14:54:23.147Z,0.77
2023-04-12T14:55:48.097Z,1.75
2023-04-12T14:57:12.400Z,1.00
2023-04-12T14:58:36.092Z,1.20
2023-04-12T14:59:59.870Z,1.17
2023-04-12T15:01:24.021Z,1.58
2023-04-12T15:02:48.932Z,1.70
2023-04-12T15:04:13.095Z,0.90
2023-04-12T15:05:37.813Z,0.90
2023-04-12T15:07:01.539Z,1.17
2023-04-12T15:08:25.905Z,0.95
2023-04-12T15:09:49.259Z,1.27
2023-04-12T15:11:19.157Z,1.30
2023-04-12T15:12:42.708Z,1.40
2023-04-12T15:14:08.675Z,1.40
2023-04-12T15:15:32.111Z,1.13
2023-04-12T15:16:55.652Z,1.52
2023-04-12T15:18:19.044Z,1.02
2023-04-12T15:19:42.422Z,1.30
2023-04-12T15:21:08.352Z,1.30
2023-04-12T15:22:37.675Z,1.45
2023-04-12T15:24:01.437Z,1.88
2023-04-12T15:25:25.126Z,1.10
2023-04-12T15:26:51.406Z,1.75
2023-04-12T15:28:14.810Z,1.48
2023-04-12T15:29:38.192Z,1.88
2023-04-12T15:31:02.226Z,1.70
2023-04-12T15:32:26.731Z,1.65
2023-04-12T15:33:50.591Z,1.75
2023-04-12T15:36:43.114Z,1.58
2023-04-12T15:38:06.872Z,1.42
2023-04-12T15:39:30.477Z,1.60
2023-04-12T15:40:56.258Z,1.58
2023-04-12T15:42:21.180Z,1.70
2023-04-12T15:43:49.210Z,2.80
2023-04-12T15:45:13.632Z,1.60
2023-04-12T15:46:37.094Z,1.58
2023-04-12T15:48:00.605Z,1.50
2023-04-12T15:49:25.435Z,1.80
2023-04-12T15:50:49.636Z,1.60
2023-04-12T15:52:13.073Z,2.03
2023-04-12T15:53:36.914Z,1.60
2023-04-12T15:55:00.370Z,2.03
2023-04-12T15:56:25.301Z,1.95
2023-04-12T15:57:50.147Z,2.20
2023-04-12T15:59:14.722Z,2.33
2023-04-12T16:00:38.377Z,1.70
2023-04-12T16:02:03.696Z,2.22
2023-04-12T16:03:27.422Z,2.00
2023-04-12T16:04:51.482Z,2.10
2023-04-12T16:06:19.430Z,1.90
2023-04-12T16:07:42.937Z,1.98
2023-04-12T16:09:06.763Z,2.03
2023-04-12T16:10:30.568Z,2.03
2023-04-12T16:11:54.035Z,1.50
2023-04-12T16:13:19.481Z,2.00
2023-04-12T16:14:43.970Z,1.83
2023-04-12T16:16:07.864Z,1.92
2023-04-12T16:17:31.323Z,2.28
2023-04-12T16:18:56.494Z,1.85
2023-04-12T16:20:21.392Z,1.63
2023-04-12T16:21:44.978Z,1.92
2023-04-12T16:23:08.361Z,1.98
2023-04-12T16:24:32.604Z,1.77
2023-04-12T16:25:56.277Z,1.60
2023-04-12T16:27:22.311Z,2.22
2023-04-12T16:28:48.280Z,2.05
2023-04-12T16:30:15.612Z,2.03
2023-04-12T16:31:39.772Z,2.25
2023-04-12T16:33:03.323Z,2.42
2023-04-12T16:34:26.821Z,1.95
2023-04-12T16:35:51.056Z,2.10
2023-04-12T16:37:14.575Z,2.25
2023-04-12T16:38:38.050Z,2.58
2023-04-12T16:40:02.007Z,1.80
2023-04-12T16:41:25.498Z,2.20
2023-04-12T16:42:48.067Z,2.65
2023-04-12T16:44:18.744Z,2.13
2023-04-12T16:45:45.483Z,2.05
2023-04-12T16:47:09.536Z,2.10
2023-04-12T16:48:33.162Z,2.50
2023-04-12T16:49:57.381Z,2.28
2023-04-12T16:51:21.141Z,2.17
2023-04-12T16:52:44.727Z,1.85
2023-04-12T16:54:08.104Z,1.90
2023-04-12T16:55:31.544Z,1.67
2023-04-12T16:56:56.358Z,2.20
2023-04-12T16:58:20.043Z,1.70
2023-04-12T16:59:45.287Z,2.10
2023-04-12T17:01:09.341Z,1.85
2023-04-12T17:02:33.497Z,1.85
2023-04-12T17:03:56.318Z,1.70
2023-04-12T17:05:20.169Z,1.90
2023-04-12T17:06:44.193Z,1.77
2023-04-12T17:08:09.621Z,1.70
2023-04-12T17:09:33.742Z,2.00
2023-04-12T17:10:57.235Z,1.92
2023-04-12T17:12:20.764Z,1.52
2023-04-12T17:13:44.642Z,2.13
2023-04-12T17:15:11.063Z,2.05
2023-04-12T17:16:34.494Z,2.15
2023-04-12T17:18:03.086Z,1.80
2023-04-12T17:19:27.051Z,1.92
2023-04-12T17:20:51.007Z,2.03
2023-04-12T17:22:14.527Z,1.33
2023-04-12T17:23:38.721Z,1.70
2023-04-12T17:25:02.159Z,1.75
2023-04-12T17:26:27.248Z,1.90
2023-04-12T17:27:50.812Z,1.80
2023-04-12T17:29:14.554Z,1.70
2023-04-12T17:30:39.372Z,1.83
2023-04-12T17:32:04.187Z,1.63
2023-04-12T17:33:28.280Z,1.35
2023-04-12T17:34:54.708Z,1.70
2023-04-12T17:36:19.417Z,2.10
2023-04-12T17:37:42.072Z,2.00
2023-04-12T17:39:05.544Z,1.80
2023-04-12T17:40:28.932Z,1.75
2023-04-12T17:41:53.970Z,1.85
2023-04-12T17:43:20.435Z,2.00
2023-04-12T17:44:42.908Z,1.80
2023-04-12T17:46:08.222Z,1.70
2023-04-12T17:47:33.909Z,1.75
2023-04-12T17:48:59.902Z,1.63
2023-04-12T17:50:23.726Z,1.60
2023-04-12T17:51:47.139Z,1.88
2023-04-12T17:53:10.942Z,2.08
2023-04-12T17:54:35.803Z,1.67
2023-04-12T17:55:59.243Z,2.00
2023-04-12T17:57:24.282Z,1.42
2023-04-12T17:58:47.655Z,1.45
2023-04-12T18:00:23.550Z,1.60
2023-04-12T18:01:48.408Z,1.83
2023-04-12T18:03:13.201Z,1.73
2023-04-12T18:04:38.423Z,1.52
2023-04-12T18:06:04.116Z,1.73
2023-04-12T18:07:28.137Z,1.50
2023-04-12T18:08:52.588Z,2.35
2023-04-12T18:10:18.323Z,1.90
2023-04-12T18:11:53.802Z,1.83
2023-04-12T18:13:19.628Z,1.70
2023-04-12T18:14:43.012Z,1.70
2023-04-12T18:16:07.297Z,1.48
2023-04-12T18:17:32.320Z,1.95
2023-04-12T18:18:56.123Z,1.77
2023-04-12T18:20:19.922Z,1.48
2023-04-12T18:21:43.675Z,1.50
2023-04-12T18:23:08.770Z,1.70
2023-04-12T18:24:32.265Z,1.83
2023-04-12T18:25:55.732Z,1.98
2023-04-12T18:27:19.096Z,1.60
2023-04-12T18:28:42.524Z,1.60
2023-04-12T18:30:09.808Z,1.95
2023-04-12T18:31:33.432Z,1.60
2023-04-12T18:32:58.797Z,1.40
2023-04-12T18:34:25.295Z,1.35
2023-04-12T18:35:48.732Z,1.77
2023-04-12T18:37:12.247Z,1.52
2023-04-12T18:38:36.122Z,1.60
2023-04-12T18:39:59.576Z,2.28
2023-04-12T18:41:22.999Z,1.58
2023-04-12T18:42:46.655Z,2.13
2023-04-12T18:44:11.899Z,1.75
2023-04-12T18:45:40.826Z,1.63
2023-04-12T18:47:04.387Z,1.67
2023-04-12T18:48:30.276Z,2.05
2023-04-12T18:49:54.017Z,2.10
2023-04-12T18:51:17.537Z,1.77
2023-04-12T18:52:41.045Z,1.83
2023-04-12T18:54:12.911Z,1.65
2023-04-12T18:55:36.441Z,1.90
2023-04-12T18:57:02.691Z,1.58
2023-04-12T18:58:27.045Z,1.65